createdAt,value
2017-09-20T00:00:03.211Z,0
2017-09-20T00:05:03.553Z,0
2017-09-20T00:10:03.089Z,0
2017-09-20T00:15:03.512Z,0
2017-09-20T00:20:03.144Z,0
2017-09-20T00:25:02.742Z,0
2017-09-20T00:30:03.191Z,0
2017-09-20T00:35:02.764Z,0
2017-09-20T00:40:03.357Z,0
2017-09-20T00:45:02.771Z,0
2017-09-20T00:50:03.332Z,0
2017-09-20T00:55:02.683Z,0
2017-09-20T01:00:03.103Z,0
2017-09-20T01:05:03.652Z,0
2017-09-20T01:10:03.301Z,0
2017-09-20T01:15:02.909Z,0
2017-09-20T01:20:03.356Z,0
2017-09-20T01:30:03.560Z,0
2017-09-20T01:35:02.929Z,0
2017-09-20T01:40:02.568Z,0
2017-09-20T01:45:03.078Z,0
2017-09-20T01:50:03.567Z,0
2017-09-20T01:55:03.113Z,0
2017-09-20T02:00:03.518Z,0
2017-09-20T02:05:02.876Z,0
2017-09-20T02:10:03.519Z,0
2017-09-20T02:15:03.135Z,0
2017-09-20T02:20:03.486Z,0
2017-09-20T02:25:03.043Z,0
2017-09-20T02:30:03.459Z,0
2017-09-20T02:35:02.894Z,0
2017-09-20T02:40:03.377Z,0
2017-09-20T02:45:03.008Z,0
2017-09-20T02:50:02.649Z,0
2017-09-20T02:55:03.245Z,0
2017-09-20T03:00:02.656Z,0
2017-09-20T03:05:03.274Z,2
2017-09-20T03:10:02.727Z,0
2017-09-20T03:15:03.322Z,0
2017-09-20T03:20:02.907Z,0
2017-09-20T03:25:03.545Z,0
2017-09-20T03:30:03.041Z,0
2017-09-20T03:35:02.654Z,0
2017-09-20T03:40:03.287Z,0
2017-09-20T03:45:02.717Z,0
2017-09-20T03:50:03.161Z,0
2017-09-20T03:55:03.550Z,0
2017-09-20T04:00:02.920Z,0
2017-09-20T04:05:03.345Z,0
2017-09-20T04:10:02.779Z,0
2017-09-20T04:15:03.357Z,2
2017-09-20T04:20:02.887Z,3
2017-09-20T04:25:03.408Z,2
2017-09-20T04:30:02.783Z,3
2017-09-20T04:35:03.169Z,1
2017-09-20T04:40:02.588Z,0
2017-09-20T04:45:02.964Z,0
2017-09-20T04:50:03.444Z,0
2017-09-20T04:55:02.892Z,0
2017-09-20T05:00:03.437Z,2
2017-09-20T05:05:02.983Z,2
2017-09-20T05:10:02.608Z,1
2017-09-20T05:15:03.032Z,0
2017-09-20T05:20:02.652Z,1
2017-09-20T05:25:03.188Z,0
2017-09-20T05:30:03.558Z,0
2017-09-20T05:35:03.111Z,0
2017-09-20T05:40:03.553Z,0
2017-09-20T05:45:03.058Z,0
2017-09-20T05:50:03.533Z,2
2017-09-20T05:55:03.084Z,3
2017-09-20T06:00:03.517Z,0
2017-09-20T06:05:03.048Z,2
2017-09-20T06:10:02.732Z,0
2017-09-20T06:15:03.139Z,3
2017-09-20T06:20:02.793Z,2
2017-09-20T06:25:03.262Z,3
2017-09-20T06:30:02.719Z,2
2017-09-20T06:35:03.322Z,1
2017-09-20T06:40:02.929Z,0
2017-09-20T06:45:03.445Z,2
2017-09-20T06:50:02.973Z,2
2017-09-20T06:55:03.393Z,1
2017-09-20T07:00:02.918Z,3
2017-09-20T07:05:03.488Z,2
2017-09-20T07:10:02.908Z,3
2017-09-20T07:15:03.291Z,4
2017-09-20T07:20:02.894Z,2
2017-09-20T07:25:03.497Z,3
2017-09-20T07:30:03.135Z,7
2017-09-20T07:35:02.719Z,2
2017-09-20T07:40:03.215Z,4
2017-09-20T07:45:02.677Z,4
2017-09-20T07:50:03.277Z,5
2017-09-20T07:55:02.807Z,4
2017-09-20T08:00:03.239Z,5
2017-09-20T08:05:02.776Z,0
2017-09-20T08:10:03.260Z,2
2017-09-20T08:15:02.701Z,6
2017-09-20T08:20:03.125Z,4
2017-09-20T08:25:03.502Z,1
2017-09-20T08:30:03.095Z,2
2017-09-20T08:35:03.570Z,2
2017-09-20T08:40:03.063Z,3
2017-09-20T08:45:02.620Z,7
2017-09-20T08:50:03.101Z,4
2017-09-20T08:55:02.643Z,3
2017-09-20T09:00:03.213Z,7
2017-09-20T09:05:02.798Z,7
2017-09-20T09:10:03.278Z,5
2017-09-20T09:15:02.683Z,5
2017-09-20T09:20:03.273Z,7
2017-09-20T09:25:02.657Z,8
2017-09-20T09:30:03.273Z,6
2017-09-20T09:35:02.658Z,5
2017-09-20T09:40:03.151Z,5
2017-09-20T09:45:03.576Z,2
2017-09-20T09:50:02.931Z,7
2017-09-20T09:55:03.506Z,2
2017-09-20T10:00:02.930Z,5
2017-09-20T10:05:03.323Z,4
2017-09-20T10:10:02.893Z,5
2017-09-20T10:15:03.290Z,0
2017-09-20T10:20:02.641Z,4
2017-09-20T10:25:03.239Z,2
2017-09-20T10:30:02.633Z,4
2017-09-20T10:35:03.049Z,6
2017-09-20T10:40:02.747Z,5
2017-09-20T10:45:03.332Z,3
2017-09-20T10:50:03.084Z,4
2017-09-20T10:55:02.644Z,0
2017-09-20T11:00:03.195Z,0
2017-09-20T11:05:02.752Z,1
2017-09-20T11:10:03.444Z,0
2017-09-20T11:15:02.958Z,0
2017-09-20T11:20:03.380Z,0
2017-09-20T11:25:02.958Z,0
2017-09-20T11:35:03.152Z,0
2017-09-20T11:40:02.791Z,2
2017-09-20T11:45:03.337Z,0
2017-09-20T11:50:02.867Z,0
2017-09-20T11:55:03.390Z,0
2017-09-20T12:00:02.975Z,0
2017-09-20T12:05:03.403Z,0
2017-09-20T12:10:02.957Z,3
2017-09-20T12:15:03.400Z,0
2017-09-20T12:20:02.886Z,0
2017-09-20T12:25:03.482Z,1
2017-09-20T12:30:02.885Z,1
2017-09-20T12:35:03.450Z,2
2017-09-20T12:40:02.864Z,2
2017-09-20T12:45:03.426Z,0
2017-09-20T12:55:02.708Z,3
2017-09-20T13:00:03.254Z,2
2017-09-20T13:05:02.826Z,2
2017-09-20T13:10:03.497Z,0
2017-09-20T13:15:03.106Z,2
2017-09-20T13:20:03.549Z,1
2017-09-20T13:25:03.225Z,3
2017-09-20T13:30:02.600Z,0
2017-09-20T13:35:03.131Z,3
2017-09-20T13:40:02.594Z,2
2017-09-20T13:50:02.890Z,6
2017-09-20T13:55:03.292Z,4
2017-09-20T14:00:02.913Z,6
2017-09-20T14:05:03.316Z,6
2017-09-20T14:10:02.940Z,4
2017-09-20T14:15:03.375Z,5
2017-09-20T14:20:03.039Z,2
2017-09-20T14:25:02.735Z,7
2017-09-20T14:30:03.365Z,2
2017-09-20T14:35:03.007Z,2
2017-09-20T14:40:02.758Z,4
2017-09-20T14:45:03.216Z,3
2017-09-20T14:50:02.637Z,4
2017-09-20T14:55:03.190Z,3
2017-09-20T15:00:02.615Z,4
2017-09-20T15:05:03.220Z,3
2017-09-20T15:10:02.874Z,5
2017-09-20T15:15:03.478Z,5
2017-09-20T15:20:03.107Z,4
2017-09-20T15:25:02.641Z,6
2017-09-20T15:30:03.318Z,3
2017-09-20T15:35:02.953Z,3
2017-09-20T15:40:03.493Z,3
2017-09-20T15:45:03.100Z,5
2017-09-20T15:50:03.531Z,2
2017-09-20T15:55:02.970Z,1
2017-09-20T16:00:03.421Z,5
2017-09-20T16:05:02.826Z,3
2017-09-20T16:10:03.482Z,2
2017-09-20T16:15:02.874Z,3
2017-09-20T16:20:03.443Z,3
2017-09-20T16:25:03.025Z,0
2017-09-20T16:30:02.593Z,0
2017-09-20T16:35:03.291Z,1
2017-09-20T16:40:02.911Z,2
2017-09-20T16:45:03.426Z,0
2017-09-20T16:50:03.031Z,1
2017-09-20T16:55:03.452Z,1
2017-09-20T17:00:02.916Z,2
2017-09-20T17:05:03.319Z,0
2017-09-20T17:10:03.037Z,2
2017-09-20T17:15:03.499Z,0
2017-09-20T17:20:02.925Z,0
2017-09-20T17:25:03.329Z,0
2017-09-20T17:30:02.952Z,0
2017-09-20T17:35:03.461Z,0
2017-09-20T17:40:02.901Z,0
2017-09-20T17:45:03.461Z,0
2017-09-20T17:50:02.904Z,0
2017-09-20T17:55:03.509Z,0
2017-09-20T18:00:03.122Z,0
2017-09-20T18:05:02.787Z,0
2017-09-20T18:10:03.446Z,0
2017-09-20T18:15:02.860Z,0
2017-09-20T18:20:03.496Z,0
2017-09-20T18:25:02.950Z,0
2017-09-20T18:30:03.520Z,0
2017-09-20T18:35:03.113Z,0
2017-09-20T18:40:02.684Z,0
2017-09-20T18:45:03.178Z,0
2017-09-20T18:50:02.757Z,0
2017-09-20T18:55:03.343Z,0
2017-09-20T19:00:02.937Z,0
2017-09-20T19:05:03.397Z,0
2017-09-20T19:10:02.864Z,0
2017-09-20T19:15:03.262Z,0
2017-09-20T19:20:02.704Z,0
2017-09-20T19:25:03.139Z,0
2017-09-20T19:30:02.784Z,0
2017-09-20T19:35:03.407Z,0
2017-09-20T19:40:02.841Z,0
2017-09-20T19:45:03.258Z,0
2017-09-20T19:50:02.751Z,0
2017-09-20T19:55:03.148Z,0
2017-09-20T20:00:03.437Z,0
2017-09-20T20:05:02.978Z,0
2017-09-20T20:10:03.427Z,0
2017-09-20T20:15:03.050Z,0
2017-09-20T20:20:02.710Z,0
2017-09-20T20:25:03.150Z,0
2017-09-20T20:30:03.549Z,0
2017-09-20T20:35:03.257Z,0
2017-09-20T20:40:02.696Z,0
2017-09-20T20:45:03.301Z,0
2017-09-20T20:50:02.943Z,0
2017-09-20T20:55:03.575Z,0
2017-09-20T21:00:03.025Z,0
2017-09-20T21:05:03.508Z,0
2017-09-20T21:10:02.927Z,0
2017-09-20T21:15:03.309Z,0
2017-09-20T21:20:02.925Z,0
2017-09-20T21:25:03.542Z,0
2017-09-20T21:30:02.998Z,0
2017-09-20T21:35:02.591Z,0
2017-09-20T21:40:03.233Z,0
2017-09-20T21:45:02.600Z,0
2017-09-20T21:50:03.284Z,0
2017-09-20T21:55:02.839Z,0
2017-09-20T22:00:03.310Z,0
2017-09-20T22:05:02.870Z,0
2017-09-20T22:10:03.463Z,1
2017-09-20T22:15:02.956Z,2
2017-09-20T22:20:03.324Z,1
2017-09-20T22:25:02.735Z,2
2017-09-20T22:30:03.330Z,2
2017-09-20T22:35:02.693Z,0
2017-09-20T22:40:03.121Z,2
2017-09-20T22:45:02.668Z,0
2017-09-20T22:50:03.248Z,0
2017-09-20T22:55:02.858Z,2
2017-09-20T23:00:03.746Z,2
2017-09-20T23:05:03.547Z,2
2017-09-20T23:10:02.975Z,2
2017-09-20T23:15:03.532Z,2
2017-09-20T23:20:02.970Z,3
2017-09-20T23:25:03.429Z,0
2017-09-20T23:30:02.803Z,2
2017-09-20T23:35:03.444Z,2
2017-09-20T23:40:03.076Z,2
2017-09-20T23:45:03.544Z,1
2017-09-20T23:50:03.146Z,1
2017-09-20T23:55:02.785Z,0
